createdAt,value
2023-04-21T00:01:19.439Z,7.57
2023-04-21T00:03:47.231Z,7.50
2023-04-21T00:06:21.822Z,7.14
2023-04-21T00:08:49.168Z,7.19
2023-04-21T00:11:16.324Z,7.66
2023-04-21T00:13:43.019Z,7.65
2023-04-21T00:16:09.886Z,7.29
2023-04-21T00:18:36.497Z,8.17
2023-04-21T00:21:03.393Z,8.08
2023-04-21T00:23:30.063Z,8.27
2023-04-21T00:25:56.794Z,8.25
2023-04-21T00:28:23.565Z,8.12
2023-04-21T00:30:50.322Z,8.02
2023-04-21T00:33:16.989Z,8.11
2023-04-21T00:35:43.756Z,8.12
2023-04-21T00:38:10.485Z,8.13
2023-04-21T00:40:37.126Z,7.92
2023-04-21T00:43:07.670Z,8.33
2023-04-21T00:45:34.385Z,7.89
2023-04-21T00:48:01.128Z,8.40
2023-04-21T00:50:28.000Z,8.73
2023-04-21T00:52:55.497Z,8.63
2023-04-21T00:55:23.909Z,8.02
2023-04-21T00:57:51.526Z,8.03
2023-04-21T01:00:18.415Z,7.94
2023-04-21T01:02:45.298Z,8.18
2023-04-21T01:05:15.872Z,8.68
2023-04-21T01:07:42.597Z,8.21
2023-04-21T01:10:09.565Z,8.00
2023-04-21T01:12:45.826Z,7.85
2023-04-21T01:15:13.364Z,7.75
2023-04-21T01:17:41.049Z,8.29
2023-04-21T01:20:12.841Z,8.42
2023-04-21T01:22:44.452Z,8.49
2023-04-21T01:25:11.203Z,8.29
2023-04-21T01:27:37.910Z,8.05
2023-04-21T01:30:06.719Z,8.63
2023-04-21T01:32:33.548Z,8.82
2023-04-21T01:35:00.549Z,9.18
2023-04-21T01:37:30.200Z,9.05
2023-04-21T01:39:58.299Z,8.46
2023-04-21T01:47:30.467Z,7.58
2023-04-21T01:49:57.175Z,8.34
2023-04-21T01:52:23.884Z,8.56
2023-04-21T01:54:53.312Z,8.67
2023-04-21T01:57:20.590Z,8.54
2023-04-21T01:59:48.915Z,8.28
2023-04-21T02:02:16.302Z,7.90
2023-04-21T02:07:14.632Z,8.89
2023-04-21T02:12:14.915Z,8.67
2023-04-21T02:14:42.314Z,8.37
2023-04-21T02:17:08.965Z,8.47
2023-04-21T02:19:37.065Z,8.19
2023-04-21T02:22:03.860Z,8.34
2023-04-21T02:24:30.519Z,8.06
2023-04-21T02:34:33.018Z,8.01
2023-04-21T02:37:00.117Z,7.64
2023-04-21T02:39:26.788Z,7.81
2023-04-21T02:41:53.479Z,8.12
2023-04-21T02:44:21.091Z,8.31
2023-04-21T02:51:51.562Z,8.32
2023-04-21T02:54:18.438Z,7.88
2023-04-21T02:56:45.093Z,7.70
2023-04-21T02:59:15.892Z,7.26
2023-04-21T03:01:42.671Z,7.56
2023-04-21T03:04:09.485Z,7.47
2023-04-21T03:06:38.188Z,7.31
2023-04-21T03:09:05.844Z,7.69
2023-04-21T03:11:32.605Z,7.46
2023-04-21T03:13:59.452Z,7.63
2023-04-21T03:16:27.449Z,7.34
2023-04-21T03:18:54.169Z,7.88
2023-04-21T03:21:20.961Z,7.92
2023-04-21T03:23:47.856Z,8.31
2023-04-21T03:26:14.828Z,8.11
2023-04-21T03:28:41.528Z,7.62
2023-04-21T03:31:08.178Z,8.08
2023-04-21T03:33:34.895Z,7.72
2023-04-21T03:36:01.636Z,8.42
2023-04-21T03:38:30.030Z,7.93
2023-04-21T03:40:57.015Z,7.97
2023-04-21T03:43:23.735Z,8.43
2023-04-21T03:45:51.544Z,8.11
2023-04-21T03:48:19.135Z,8.14
2023-04-21T03:50:45.867Z,8.10
2023-04-21T03:53:12.602Z,7.91
2023-04-21T03:55:39.237Z,7.64
2023-04-21T03:58:07.180Z,7.74
2023-04-21T04:00:33.855Z,7.86
2023-04-21T04:03:00.753Z,8.33
2023-04-21T04:05:27.851Z,7.95
2023-04-21T04:07:54.878Z,7.97
2023-04-21T04:10:21.545Z,7.54
2023-04-21T04:12:49.092Z,8.07
2023-04-21T04:15:15.935Z,7.80
2023-04-21T04:17:42.667Z,7.71
2023-04-21T04:20:09.480Z,7.64
2023-04-21T04:22:36.530Z,7.89
2023-04-21T04:25:03.640Z,8.15
2023-04-21T04:27:30.347Z,8.17
2023-04-21T04:29:57.078Z,8.33
2023-04-21T04:32:27.850Z,8.23
2023-04-21T04:34:55.596Z,8.02
2023-04-21T04:37:22.270Z,7.34
2023-04-21T04:39:52.330Z,7.58
2023-04-21T04:42:20.951Z,7.67
2023-04-21T04:44:47.586Z,7.64
2023-04-21T04:47:14.285Z,7.48
2023-04-21T04:49:41.021Z,7.31
2023-04-21T04:52:07.616Z,7.28
2023-04-21T04:54:34.239Z,7.61
2023-04-21T04:57:01.848Z,7.79
2023-04-21T04:59:30.252Z,7.61
2023-04-21T05:01:57.193Z,7.63
2023-04-21T05:04:24.217Z,7.44
2023-04-21T05:06:51.594Z,7.79
2023-04-21T05:09:18.178Z,7.56
2023-04-21T05:11:44.964Z,7.26
2023-04-21T05:14:11.722Z,7.59
2023-04-21T05:16:38.712Z,7.25
2023-04-21T05:19:05.473Z,7.58
2023-04-21T05:21:32.848Z,7.51
2023-04-21T05:24:00.533Z,7.65
2023-04-21T05:26:27.917Z,9.22
2023-04-21T05:28:55.996Z,8.15
2023-04-21T05:31:23.417Z,8.65
2023-04-21T05:33:50.824Z,8.50
2023-04-21T05:36:19.070Z,7.53
2023-04-21T05:38:45.749Z,8.02
2023-04-21T05:41:12.357Z,8.23
2023-04-21T05:43:39.047Z,8.08
2023-04-21T05:46:08.808Z,7.69
2023-04-21T05:48:35.622Z,8.09
2023-04-21T05:51:12.791Z,8.13
2023-04-21T05:53:39.701Z,7.79
2023-04-21T05:56:08.240Z,8.45
2023-04-21T05:58:36.948Z,8.16
2023-04-21T06:01:04.047Z,8.49
2023-04-21T06:03:31.421Z,8.74
2023-04-21T06:06:00.592Z,8.27
2023-04-21T06:08:27.366Z,8.72
2023-04-21T06:10:54.224Z,8.65
2023-04-21T06:13:21.567Z,8.56
2023-04-21T06:15:48.226Z,8.51
2023-04-21T06:18:15.790Z,8.71
2023-04-21T06:20:42.573Z,8.49
2023-04-21T06:23:09.290Z,9.23
2023-04-21T06:25:36.082Z,8.54
2023-04-21T06:28:02.878Z,8.28
2023-04-21T06:30:29.776Z,8.50
2023-04-21T06:32:57.231Z,8.54
2023-04-21T06:35:24.038Z,8.24
2023-04-21T06:37:50.733Z,8.16
2023-04-21T06:40:17.421Z,8.44
2023-04-21T06:42:44.046Z,8.08
2023-04-21T06:45:11.062Z,8.14
2023-04-21T06:47:37.808Z,8.39
2023-04-21T06:50:05.520Z,8.11
2023-04-21T06:52:32.245Z,8.20
2023-04-21T06:54:58.930Z,8.61
2023-04-21T06:57:26.535Z,8.44
2023-04-21T06:59:53.934Z,8.60
2023-04-21T07:02:20.645Z,8.16
2023-04-21T07:04:47.489Z,8.43
2023-04-21T07:07:14.334Z,8.55
2023-04-21T07:09:41.104Z,8.35
2023-04-21T07:12:07.899Z,8.25
2023-04-21T07:14:34.671Z,8.55
2023-04-21T07:17:01.357Z,7.68
2023-04-21T07:19:28.174Z,6.94
2023-04-21T07:21:55.042Z,6.96
2023-04-21T07:24:21.789Z,6.54
2023-04-21T07:26:48.437Z,6.56
2023-04-21T07:29:15.249Z,6.17
2023-04-21T07:31:42.024Z,6.93
2023-04-21T07:34:08.720Z,6.39
2023-04-21T07:36:35.471Z,7.65
2023-04-21T07:39:03.507Z,6.06
2023-04-21T07:41:30.332Z,8.21
2023-04-21T07:43:57.031Z,5.87
2023-04-21T07:46:29.501Z,6.12
2023-04-21T07:48:56.829Z,5.88
2023-04-21T07:51:23.782Z,5.32
2023-04-21T07:53:50.484Z,5.18
2023-04-21T07:56:17.175Z,5.50
2023-04-21T07:58:43.902Z,5.44
2023-04-21T08:01:11.452Z,4.83
2023-04-21T08:03:38.671Z,5.10
2023-04-21T08:06:06.494Z,4.99
2023-04-21T08:08:33.630Z,4.95
2023-04-21T08:11:00.991Z,4.85
2023-04-21T08:13:28.723Z,4.55
2023-04-21T08:15:55.606Z,4.34
2023-04-21T08:18:23.113Z,4.87
2023-04-21T08:20:51.806Z,4.61
2023-04-21T08:23:19.317Z,4.94
2023-04-21T08:25:46.186Z,4.73
2023-04-21T08:28:15.603Z,4.25
2023-04-21T08:30:42.534Z,4.34
2023-04-21T08:33:12.960Z,4.56
2023-04-21T08:35:47.969Z,4.65
2023-04-21T08:38:22.133Z,4.14
2023-04-21T08:40:49.136Z,4.68
2023-04-21T08:43:17.411Z,4.61
2023-04-21T08:45:44.134Z,4.87
2023-04-21T08:48:12.024Z,4.53
2023-04-21T08:50:38.749Z,4.72
2023-04-21T08:53:05.747Z,5.25
2023-04-21T08:55:32.456Z,5.39
2023-04-21T08:57:59.345Z,5.16
2023-04-21T09:00:26.094Z,5.19
2023-04-21T09:03:01.722Z,5.52
2023-04-21T09:05:30.504Z,5.77
2023-04-21T09:08:11.279Z,6.02
2023-04-21T09:10:48.018Z,5.98
2023-04-21T09:13:15.186Z,5.69
2023-04-21T09:15:43.676Z,5.50
2023-04-21T09:18:18.020Z,6.03
2023-04-21T09:20:45.710Z,5.85
2023-04-21T09:23:12.641Z,5.92
2023-04-21T09:25:41.064Z,5.88
2023-04-21T09:28:08.898Z,5.93
2023-04-21T09:30:36.761Z,5.62
2023-04-21T09:33:10.730Z,5.35
2023-04-21T09:35:43.469Z,5.42
2023-04-21T09:38:11.569Z,6.09
2023-04-21T09:40:38.518Z,5.61
2023-04-21T09:43:05.712Z,5.79
2023-04-21T09:45:40.299Z,5.41
2023-04-21T09:48:08.017Z,5.88
2023-04-21T09:51:15.267Z,6.49
2023-04-21T09:53:21.433Z,5.99
2023-04-21T09:55:50.094Z,6.49
2023-04-21T09:58:18.132Z,6.10
2023-04-21T10:00:44.831Z,6.12
2023-04-21T10:03:12.079Z,6.22
2023-04-21T10:05:42.080Z,6.26
2023-04-21T10:08:10.923Z,6.17
2023-04-21T10:10:37.563Z,6.62
2023-04-21T10:13:04.289Z,6.67
2023-04-21T10:15:32.403Z,7.57
2023-04-21T10:18:14.516Z,6.57
2023-04-21T10:20:54.035Z,6.56
2023-04-21T10:23:30.430Z,6.30
2023-04-21T10:26:08.377Z,6.55
2023-04-21T10:28:41.055Z,7.31
2023-04-21T10:31:24.870Z,6.41
2023-04-21T10:34:12.988Z,6.49
2023-04-21T10:36:46.219Z,6.63
2023-04-21T10:39:25.964Z,6.46
2023-04-21T10:41:58.473Z,6.35
2023-04-21T10:44:25.197Z,7.06
2023-04-21T10:46:53.043Z,7.22
2023-04-21T10:49:27.841Z,6.62
2023-04-21T10:52:04.290Z,6.87
2023-04-21T10:54:46.790Z,6.58
2023-04-21T10:57:19.349Z,6.82
2023-04-21T10:59:47.725Z,7.06
2023-04-21T11:02:19.313Z,6.89
2023-04-21T11:04:50.911Z,7.15
2023-04-21T11:07:22.590Z,6.97
2023-04-21T11:10:06.370Z,6.86
2023-04-21T11:12:34.928Z,7.30
2023-04-21T11:15:07.177Z,6.73
2023-04-21T11:17:34.597Z,6.91
2023-04-21T11:20:01.405Z,6.73
2023-04-21T11:22:28.045Z,6.44
2023-04-21T11:24:55.767Z,6.49
2023-04-21T11:27:22.855Z,6.56
2023-04-21T11:29:49.612Z,6.72
2023-04-21T11:32:17.643Z,6.89
2023-04-21T11:34:44.603Z,6.94
2023-04-21T11:37:16.377Z,6.61
2023-04-21T11:42:24.568Z,6.74
2023-04-21T11:44:53.674Z,6.95
2023-04-21T11:47:24.837Z,6.55
2023-04-21T11:49:56.348Z,6.74
2023-04-21T11:52:25.119Z,6.53
2023-04-21T11:55:12.555Z,6.70
2023-04-21T11:57:40.006Z,6.45
2023-04-21T12:00:11.207Z,6.74
2023-04-21T12:02:38.217Z,6.66
2023-04-21T12:05:12.041Z,6.50
2023-04-21T12:07:43.644Z,6.72
2023-04-21T12:10:11.971Z,6.70
2023-04-21T12:12:39.150Z,6.48
2023-04-21T12:15:07.282Z,5.91
2023-04-21T12:17:43.472Z,6.33
2023-04-21T12:20:10.840Z,6.25
2023-04-21T12:22:37.469Z,6.36
2023-04-21T12:25:05.380Z,6.74
2023-04-21T12:27:32.106Z,6.64
2023-04-21T12:29:58.872Z,6.62
2023-04-21T12:32:25.734Z,6.64
2023-04-21T12:34:53.826Z,7.16
2023-04-21T12:37:20.583Z,6.74
2023-04-21T12:42:18.716Z,7.16
2023-04-21T12:44:45.802Z,6.81
2023-04-21T12:47:12.349Z,6.73
2023-04-21T12:49:39.093Z,6.90
2023-04-21T12:52:05.901Z,6.91
2023-04-21T12:54:33.227Z,6.73
2023-04-21T12:56:59.904Z,6.77
2023-04-21T12:59:33.949Z,7.00
2023-04-21T13:04:32.517Z,6.69
2023-04-21T13:06:59.527Z,6.87
2023-04-21T13:09:29.091Z,6.44
2023-04-21T13:11:55.943Z,6.89
2023-04-21T13:14:24.574Z,6.78
2023-04-21T13:16:52.368Z,7.22
2023-04-21T13:21:53.986Z,7.23
2023-04-21T13:24:21.676Z,7.49
2023-04-21T13:26:48.340Z,7.85
2023-04-21T13:29:40.615Z,7.59
2023-04-21T13:32:06.134Z,7.15
2023-04-21T13:34:33.614Z,7.33
2023-04-21T13:37:00.844Z,7.33
2023-04-21T13:39:27.622Z,7.28
2023-04-21T13:41:54.478Z,7.68
2023-04-21T13:44:21.207Z,7.42
2023-04-21T13:46:48.070Z,7.10
2023-04-21T13:49:14.952Z,7.58
2023-04-21T13:51:41.787Z,7.68
2023-04-21T13:54:08.478Z,7.37
2023-04-21T13:56:35.997Z,7.60
2023-04-21T13:59:02.683Z,7.15
2023-04-21T14:01:29.562Z,7.35
2023-04-21T14:03:56.863Z,7.67
2023-04-21T14:06:24.855Z,7.67
2023-04-21T14:08:51.465Z,8.02
2023-04-21T14:11:18.845Z,6.98
2023-04-21T14:13:59.829Z,7.39
2023-04-21T14:16:33.025Z,7.70
2023-04-21T14:19:00.053Z,7.64
2023-04-21T14:21:26.789Z,7.91
2023-04-21T14:23:53.433Z,7.82
2023-04-21T14:26:20.415Z,7.78
2023-04-21T14:28:47.064Z,8.24
2023-04-21T14:31:13.762Z,8.13
2023-04-21T14:33:40.785Z,8.51
2023-04-21T14:36:07.582Z,8.30
2023-04-21T14:38:35.221Z,8.74
2023-04-21T14:41:02.018Z,9.17
2023-04-21T14:43:28.754Z,8.83
2023-04-21T14:45:56.699Z,7.99
2023-04-21T14:48:23.503Z,8.36
2023-04-21T14:50:50.243Z,7.65
2023-04-21T14:53:17.489Z,7.92
2023-04-21T14:55:44.139Z,7.87
2023-04-21T14:58:10.818Z,8.00
2023-04-21T15:00:38.632Z,7.64
2023-04-21T15:03:05.358Z,7.51
2023-04-21T15:05:34.012Z,7.96
2023-04-21T15:08:01.020Z,7.97
2023-04-21T15:10:29.306Z,7.97
2023-04-21T15:12:56.702Z,8.17
2023-04-21T15:15:23.606Z,8.23
2023-04-21T15:17:50.364Z,8.22
2023-04-21T15:20:17.158Z,10.20
2023-04-21T15:22:43.931Z,10.54
2023-04-21T15:25:10.632Z,9.08
2023-04-21T15:27:37.517Z,8.28
2023-04-21T15:30:04.719Z,8.23
2023-04-21T15:32:31.541Z,8.19
2023-04-21T15:34:58.388Z,11.74
2023-04-21T15:37:26.032Z,13.36
2023-04-21T15:39:52.829Z,14.14
2023-04-21T15:42:19.648Z,10.08
2023-04-21T15:44:46.449Z,8.68
2023-04-21T15:47:15.829Z,9.85
2023-04-21T15:49:42.579Z,10.23
2023-04-21T15:52:09.290Z,8.72
2023-04-21T15:54:36.474Z,8.74
2023-04-21T15:57:03.731Z,8.74
2023-04-21T15:59:30.811Z,10.12
2023-04-21T16:01:57.490Z,9.43
2023-04-21T16:04:24.632Z,8.80
2023-04-21T16:06:51.496Z,8.61
2023-04-21T16:09:20.569Z,8.83
2023-04-21T16:11:50.732Z,9.06
2023-04-21T16:14:17.982Z,9.76
2023-04-21T16:16:44.848Z,9.19
2023-04-21T16:19:11.625Z,8.84
2023-04-21T16:21:39.625Z,9.19
2023-04-21T16:24:07.702Z,9.64
2023-04-21T16:26:35.756Z,9.61
2023-04-21T16:29:02.500Z,9.48
2023-04-21T16:31:29.226Z,9.25
2023-04-21T16:33:59.040Z,9.08
2023-04-21T16:36:30.716Z,9.21
2023-04-21T16:38:58.379Z,9.58
2023-04-21T16:41:25.516Z,9.08
2023-04-21T16:43:52.080Z,9.59
2023-04-21T16:46:18.876Z,9.55
2023-04-21T16:48:45.817Z,9.64
2023-04-21T16:51:12.827Z,10.19
2023-04-21T16:53:40.378Z,10.36
2023-04-21T16:56:07.167Z,10.29
2023-04-21T16:58:33.922Z,10.37
2023-04-21T17:01:00.717Z,10.19
2023-04-21T17:03:28.512Z,10.20
2023-04-21T17:05:55.615Z,10.13
2023-04-21T17:08:22.311Z,10.32
2023-04-21T17:10:49.074Z,10.52
2023-04-21T17:13:16.328Z,10.36
2023-04-21T17:15:43.069Z,10.63
2023-04-21T17:18:10.128Z,9.84
2023-04-21T17:20:37.497Z,10.15
2023-04-21T17:23:04.408Z,10.02
2023-04-21T17:25:31.359Z,10.18
2023-04-21T17:27:58.112Z,10.38
2023-04-21T17:30:24.942Z,10.39
2023-04-21T17:33:00.581Z,11.40
2023-04-21T17:35:35.842Z,11.55
2023-04-21T17:38:02.666Z,11.25
2023-04-21T17:40:29.513Z,11.66
2023-04-21T17:42:56.201Z,11.36
2023-04-21T17:45:22.934Z,11.34
2023-04-21T17:47:49.729Z,11.07
2023-04-21T17:50:16.542Z,11.41
2023-04-21T17:52:43.207Z,12.63
2023-04-21T17:55:10.898Z,12.62
2023-04-21T17:57:37.616Z,12.00
2023-04-21T18:00:07.325Z,12.03
2023-04-21T18:02:34.065Z,12.09
2023-04-21T18:05:01.176Z,12.03
2023-04-21T18:07:27.960Z,12.25
2023-04-21T18:09:55.114Z,11.98
2023-04-21T18:12:22.068Z,12.20
2023-04-21T18:14:48.721Z,12.60
2023-04-21T18:17:17.332Z,12.16
2023-04-21T18:19:44.247Z,12.09
2023-04-21T18:22:11.705Z,12.07
2023-04-21T18:24:38.985Z,12.90
2023-04-21T18:27:06.693Z,12.06
2023-04-21T18:29:33.451Z,12.20
2023-04-21T18:32:00.699Z,11.66
2023-04-21T18:34:27.628Z,11.78
2023-04-21T18:36:54.376Z,11.74
2023-04-21T18:39:21.017Z,12.15
2023-04-21T18:41:47.974Z,11.84
2023-04-21T18:44:15.603Z,12.18
2023-04-21T18:46:42.493Z,11.78
2023-04-21T18:49:09.210Z,11.55
2023-04-21T18:51:39.024Z,11.81
2023-04-21T18:54:05.847Z,12.10
2023-04-21T18:56:32.640Z,11.97
2023-04-21T18:58:59.268Z,13.00
2023-04-21T19:01:26.495Z,13.15
2023-04-21T19:03:53.584Z,13.27
2023-04-21T19:06:20.591Z,15.03
2023-04-21T19:08:50.497Z,15.25
2023-04-21T19:11:17.343Z,16.04
2023-04-21T19:13:44.092Z,18.95
2023-04-21T19:16:10.975Z,18.90
2023-04-21T19:18:37.882Z,18.79
2023-04-21T19:21:05.435Z,20.92
2023-04-21T19:23:32.686Z,26.81
2023-04-21T19:26:04.042Z,26.26
2023-04-21T19:28:31.644Z,25.26
2023-04-21T19:30:58.367Z,21.91
2023-04-21T19:33:25.182Z,17.76
2023-04-21T19:35:51.924Z,17.94
2023-04-21T19:38:19.181Z,15.49
2023-04-21T19:40:46.126Z,15.81
2023-04-21T19:43:14.604Z,14.96
2023-04-21T19:45:41.362Z,14.62
2023-04-21T19:48:08.737Z,15.27
2023-04-21T19:50:36.058Z,15.85
2023-04-21T19:53:03.099Z,16.42
2023-04-21T19:55:30.157Z,15.42
2023-04-21T19:57:59.552Z,15.57
2023-04-21T20:00:26.626Z,15.88
2023-04-21T20:02:53.472Z,16.02
2023-04-21T20:05:20.720Z,16.41
2023-04-21T20:07:47.565Z,17.19
2023-04-21T20:10:14.209Z,18.58
2023-04-21T20:12:40.810Z,17.99
2023-04-21T20:15:08.298Z,18.26
2023-04-21T20:17:36.284Z,19.12
2023-04-21T20:20:08.731Z,20.44
2023-04-21T20:22:35.562Z,20.09
2023-04-21T20:25:03.660Z,20.44
2023-04-21T20:27:30.816Z,20.29
2023-04-21T20:29:57.628Z,19.53
2023-04-21T20:32:24.615Z,19.35
2023-04-21T20:34:52.842Z,18.43
2023-04-21T20:37:20.004Z,18.63
2023-04-21T20:39:46.734Z,17.48
2023-04-21T20:42:14.303Z,17.24
2023-04-21T20:44:42.835Z,16.72
2023-04-21T20:47:10.954Z,15.52
2023-04-21T20:49:39.112Z,15.66
2023-04-21T20:52:06.269Z,16.66
2023-04-21T20:54:34.143Z,16.44
2023-04-21T20:57:01.514Z,16.04
2023-04-21T20:59:28.544Z,16.35
2023-04-21T21:01:55.457Z,16.33
2023-04-21T21:04:22.596Z,15.68
2023-04-21T21:06:49.673Z,15.25
2023-04-21T21:09:18.203Z,15.20
2023-04-21T21:11:45.228Z,15.88
2023-04-21T21:14:11.953Z,15.84
2023-04-21T21:16:39.318Z,15.46
2023-04-21T21:19:06.369Z,15.75
2023-04-21T21:21:33.304Z,15.69
2023-04-21T21:24:00.046Z,15.86
2023-04-21T21:26:26.892Z,15.76
2023-04-21T21:28:53.562Z,15.32
2023-04-21T21:31:20.406Z,17.83
2023-04-21T21:33:47.098Z,17.10
2023-04-21T21:36:13.766Z,16.03
2023-04-21T21:38:40.700Z,15.65
2023-04-21T21:41:09.776Z,16.20
2023-04-21T21:43:36.630Z,16.24
2023-04-21T21:46:04.534Z,15.46
2023-04-21T21:48:31.253Z,14.99
2023-04-21T21:50:58.076Z,13.91
2023-04-21T21:53:25.138Z,13.99
2023-04-21T21:55:51.704Z,14.04
2023-04-21T21:58:18.707Z,13.74
2023-04-21T22:00:51.098Z,13.31
2023-04-21T22:03:19.135Z,13.79
2023-04-21T22:05:46.627Z,13.64
2023-04-21T22:08:14.919Z,13.53
2023-04-21T22:10:42.452Z,13.11
2023-04-21T22:13:09.297Z,13.05
2023-04-21T22:15:37.315Z,13.34
2023-04-21T22:18:04.493Z,13.33
2023-04-21T22:20:31.677Z,13.04
2023-04-21T22:22:58.778Z,14.23
2023-04-21T22:25:28.294Z,13.94
2023-04-21T22:27:58.139Z,14.46
2023-04-21T22:30:25.380Z,15.76
2023-04-21T22:32:52.281Z,17.35
2023-04-21T22:35:19.584Z,17.57
2023-04-21T22:37:46.237Z,17.80
2023-04-21T22:40:12.998Z,16.92
2023-04-21T22:42:39.814Z,16.47
2023-04-21T22:45:07.498Z,16.70
2023-04-21T22:47:34.350Z,15.90
2023-04-21T22:50:01.382Z,15.79
2023-04-21T22:52:28.311Z,15.34
2023-04-21T22:54:55.253Z,14.57
2023-04-21T22:57:22.058Z,13.73
2023-04-21T22:59:49.043Z,13.45
2023-04-21T23:02:16.235Z,13.02
2023-04-21T23:04:43.560Z,12.76
2023-04-21T23:07:10.288Z,12.19
2023-04-21T23:09:37.258Z,12.37
2023-04-21T23:12:05.445Z,12.20
2023-04-21T23:14:32.139Z,12.79
2023-04-21T23:16:59.147Z,12.53
2023-04-21T23:19:26.148Z,12.06
2023-04-21T23:21:52.874Z,12.08
2023-04-21T23:24:19.735Z,11.46
2023-04-21T23:26:46.581Z,11.33
2023-04-21T23:29:13.306Z,11.58
2023-04-21T23:31:40.003Z,13.57
2023-04-21T23:34:07.131Z,17.48
2023-04-21T23:36:33.860Z,20.45
2023-04-21T23:39:00.786Z,21.61
2023-04-21T23:41:27.744Z,21.05
2023-04-21T23:43:54.501Z,20.69
2023-04-21T23:46:21.612Z,20.11
2023-04-21T23:48:48.461Z,20.32
2023-04-21T23:51:15.354Z,19.22
2023-04-21T23:53:42.252Z,19.45
2023-04-21T23:56:08.979Z,18.82
2023-04-21T23:58:35.651Z,18.74
